Disclaimer   
PNR Super Search
 ♦ 
×
HashTag:
PNR Number:
Train Type:
Train:
From Station:
To Station:
Train Class:
2SSLCCEx3AFC2A1A3E
WL Quota:
DOJ From:
DOJ To:
Blogger:
Traveller:
Predictor:
Prediction:
WLRACConf
Stamper:
Final:
WLRACConfVoidQ-ConfUnStamped
Status:
Reaction:

Search
  Go  
 
Mon Mar 2, 2015 02:27:12 ISTHomeTrainsΣChainsAtlasPNRForumGalleryNewsFAQTripsMembersLoginFeedback
Mon Mar 2, 2015 02:27:12 IST
Post PNRPNR StatusModify Search

Ticket PNR Status Inquiry - PNR: 860-xxxxxxx (E-Ticket)

OLD STATUS

Status Last Updated on: Mar 05 2012 (8:23AM) IST

Date of Journey: Fri Mar 09, 2012   Class: AC 2-tier - 2A   (Total Seats available for this Class/Quota: Avbl 40)
Passenger 1: Can/Mod (Booking Status: W/L 16,GNWL)
Chart NOT Prepared

Ahmedabad- Howrah SF Express (PT)/12833

Travel Time: 33h 35m    55 halts    Distance: 1859 km    Avg Speed: 55 km/hr
Type: SuperFast
Zone: SER/South Eastern
Departs @ 03:55 (Avg 19m late)
Platform# 1
SMTWTFS
ST/Surat 
Arrives @ 13:30 +1 night (Avg 12m late)
Platform# 17
SMTWTFS
HWH/Kolkata Howrah Junction 

55 halts. 268 intermediate Stations between Surat and Kolkata Howrah Junction

Show ALL intermediate Stations  Show Old Time-Table

#TrkCodeStation NameX/OArrivesAvgDepartsAvgHaltPFDay#KmSpeedElevZoneAddress
1/==/ADIAhmedabad Junction  -23:55+171-229.62451mWRAhmedabad, Gujarat
2/==/MANManinagarX  00:03+000:05+02m12-226.46950mWRAhmadabad, Gujarat
3/==/NDNadiad JunctionX  00:42+1100:44+112m12-184.06237mWRNadiad, Gujarat
4/==/ANNDAnand JunctionX  01:02+1201:04+152m12-165.64944mWRAnand, Gujarat
5/==/BRCVadodara Junction  01:48+1601:55+177m12-129.88836mWRVadodara 390005, Gujarat
6/==/BHBharuch Junction  02:43+1302:45+132m42-59.35919mWRBharuch, Gujarat
7/==/STSurat»X  03:45+2003:55+1910m120.03419mWRSurat 395001, Gujarat
8/==/UDNUdhna Junction  04:02+2504:04+292m324.06316mWRUdhna 394210, Gujarat
9%==%BIYBardoli  04:30+3804:32+372m1231.25935mWRNear Bardoli Sugar Factory Bardoli, Gujarat
10%==%MIDMadhiX  04:47+4304:49+432m1246.05345mWRMadhi, Gujarat
11%==/VYAVyaraX  05:06+4605:08+462m2261.05590mWRVyara, Gujarat
12/==/NWUNavapurX  05:54+4005:56+402m--2102.949124mWRNavapur, Gujarat
13/-=%NDBNandurbar  07:07+2907:15+288m22160.846203mWRNandurbar, Maharashtra
14/-=%DDEDondaicha  08:00+2208:02+242m12195.245163mWRDondaicha, Maharashtra
15%==%SNKSindkheda  08:28+2008:30+202m12214.653178mWRState Highway 11, Maharashtra
16/==%ANAmalner  09:17+1309:20+143m12256.262188mWRAmalner, Maharashtra
17%==/DXGDharangaon  09:44+1609:46+162m12281.136217mWRDharangaon, Maharashtra
18%==%JLJalgaon JunctionX  10:35+1410:40+155m12310.872213mCRJalgaon 425001, Maharashtra
19/==/BSLBhusaval Junction  11:00+2211:10+2410m12334.970208mCRBhusaval 425201, Maharashtra
20/==/MKUMalkapurX  11:53+3011:55+302m22384.873252mCRMalkapur, Maharashtra
21/==/NNNandura  12:18+2912:20+292m22412.792267mCRNandura, Maharashtra
22/==/JMJalamb Junction  12:28+3212:30+322m12424.993259mCRJalamb, Maharashtra
23/==/SEGShegaonX  12:38+3512:40+352m22437.389281mCRShegaon 444203, Maharashtra
24/==/AKAkola Junction  13:05+4213:10+425m22474.580284mCRAkola-444001, Maharashtra
25/==/MZRMurtizapur  13:38+4413:40+442m12511.736303mCRMurtajapur, Maharashtra
26/==/BDBadnera Junction  14:50+1214:55+135m22553.569335mCRBadnera (Amravati) 444701, Maharashtra
27/==/CNDChandur  15:20+2015:22+202m12582.277331mCRAmravati Distt, Maharashtra
28/==/DMNDhamangaonX  15:35+2115:37+212m22598.980300mCRDhamangaon, Maharashtra
29/==/PLOPulgaon JunctionX  15:52+2215:54+222m12618.968273mCRPulgaon, Maharashtra
30/==/WRWardha Junction  16:20+2016:23+203m32648.475289mCRWardha 442001, Maharashtra
31/==/AJNIAjni  17:24+1517:26+152m12724.38310mCRNagpur 440003, Maharashtra
32/==/NGPNagpur JunctionX  17:50+518:00+710m12727.348314mCRNagpur 440001, Maharashtra
33/==/KPKampteeX  18:18+1918:20+192m12741.696290mSECRKamptee, Maharashtra
34/==/BRDBhandara RoadX  18:50+2318:52+232m12789.677266mSECRState Highway 252 Bhandara District, Maharashtra
35/==/TMRTumsar RoadX  19:06+2319:08+232m22807.581267mSECRDistt. Bhandara, Maharashtra
36/==/TROTirora  19:23+2519:25+252m12827.957282mSECRDist Gondia, Maharashtra
37/==/GGondia JunctionX  19:56+2019:58+202m22857.291316mSECRGondia 441601, Maharashtra
38/==/AGNAmgaonX  20:13+2420:15+252m12880.072317mSECRGondia, Maharashtra
39/==/DGGDongargarh  20:57+2620:59+262m12930.486353mSECRDongargarh, Chhattisgarh
40/==/RJNRaj NandgaonX  21:21+2621:23+262m12962.039313mSECRRajnandgaon, Chhattisgarh
41/==/DURGDurg Junction  22:10+1322:15+145m32992.449299mSECRPh: 91-788-2322059, Chhattisgarh
42/==/BPHBBhilai Power HouseX  22:26+022:28+02m121001.462312mSECRBhilai, Chhattisgarh
43/==/RRaipur JunctionX  22:55+1523:05+1510m621029.474297mSECRRaipur, Chhattisgarh
44/==/TLDTilda  23:36+2023:38+212m--21067.687293mSECRBanjari Rd, Chhattisgarh
45/==/BYTBhatapara  23:56+2123:58+222m--21093.649270mSECRBanjari Road, Chhattisgarh
46/==/BSPBilaspur JunctionX  00:55+1101:10+1915m231139.878271mSECRBilaspur, Chhattisgarh
47/==/AKTAkaltara  01:31+2301:33+242m331167.069284mSECRDist. Janjgir Champa, Chhattisgarh
48/==/NIAJanjgir NailaX  01:46+2401:48+242m231182.054273mSECRJanjgir, Chhattisgarh
49/==/CPHChampa JunctionX  02:00+2502:03+323m131192.885264mSECRNational Highway 200 (07819-245767), Chhattisgarh
50/==/BUABaradwar  02:14+3402:16+352m131208.391260mSECRJanjgir-Champa, Chhattisgarh
51/==/KHSKharsia  02:36+3902:38+392m131238.685259mSECRNational Highway 200, Chhattisgarh
52/==/RIGRaigarhXO  03:02+4303:07+425m131272.690220mSECRRaigarh, Chhattisgarh
53/==/BPHBelpahar  03:41+5003:43+512m--31323.653235mSECRBelpahar, Odisha
54/==/BRJNBrajrajnagarX  03:53+5203:55+522m--31332.611212mSECRBrajrajnagar, Odisha
55/==/JSGJharsuguda JunctionX  05:00+905:02+192m231344.281236mSERJharsuguda, Odisha
56/==/BMBBamra  05:29+1705:31+172m--31380.780259mSERBamra PH : 06642-229268, Odisha
57/==/GPRaj GangpurX  05:57+1905:59+192m231415.454237mSERRaj Ganpur, Odisha
58/==/ROURourkela Junction  06:32+1806:47+1815m531445.275198mSERRourkela, Odisha
59/==/CKPChakradharpurX  08:08+1608:15+167m231546.253235mSERChakradharpur (West Singhbhum), Jharkhand
60/==/TATATatanagar Junction  09:25+709:35+1010m531608.579164mSER91-657-2423026, Jharkhand
61/==/KGPKharagpur Junction  11:17+1911:22+205m631743.67342mSERDist: West Medinipur, West Bengal
62/==/SRCKolkata Santragachi Junction  12:51+812:53+82m631851.2127mSERDist: Howrah - 711104, West Bengal
63/==/HWHKolkata Howrah Junction•  13:30+12-1731858.6-10mERHowrah 711101, West Bengal
Scroll to Top
Scroll to Bottom


Go to Mobile site